sensor_id;sensor_type;location;lat;lon;timestamp;P1;durP1;ratioP1;P2;durP2;ratioP2
51190;SDS011;37253;48.736;9.294;2023-02-18T00:00:31;0.35;;;0.30;;
51190;SDS011;37253;48.736;9.294;2023-02-18T00:02:31;0.95;;;0.47;;
51190;SDS011;37253;48.736;9.294;2023-02-18T00:04:32;0.35;;;0.35;;
51190;SDS011;37253;48.736;9.294;2023-02-18T00:06:33;0.40;;;0.30;;
51190;SDS011;37253;48.736;9.294;2023-02-18T00:08:33;0.70;;;0.40;;
51190;SDS011;37253;48.736;9.294;2023-02-18T00:10:34;0.40;;;0.30;;
51190;SDS011;37253;48.736;9.294;2023-02-18T00:12:34;0.60;;;0.30;;
51190;SDS011;37253;48.736;9.294;2023-02-18T00:14:34;0.45;;;0.43;;
51190;SDS011;37253;48.736;9.294;2023-02-18T00:16:34;0.38;;;0.38;;
51190;SDS011;37253;48.736;9.294;2023-02-18T00:18:35;0.80;;;0.35;;
51190;SDS011;37253;48.736;9.294;2023-02-18T00:20:37;0.50;;;0.40;;
51190;SDS011;37253;48.736;9.294;2023-02-18T00:22:37;0.73;;;0.57;;
51190;SDS011;37253;48.736;9.294;2023-02-18T00:24:37;1.13;;;0.40;;
51190;SDS011;37253;48.736;9.294;2023-02-18T00:26:37;0.40;;;0.30;;
51190;SDS011;37253;48.736;9.294;2023-02-18T00:28:37;0.57;;;0.40;;
51190;SDS011;37253;48.736;9.294;2023-02-18T00:30:41;0.40;;;0.40;;
51190;SDS011;37253;48.736;9.294;2023-02-18T00:32:42;0.35;;;0.30;;
51190;SDS011;37253;48.736;9.294;2023-02-18T00:34:42;0.82;;;0.30;;
51190;SDS011;37253;48.736;9.294;2023-02-18T00:36:42;0.30;;;0.30;;
51190;SDS011;37253;48.736;9.294;2023-02-18T00:38:46;0.38;;;0.38;;
51190;SDS011;37253;48.736;9.294;2023-02-18T00:40:46;1.55;;;0.35;;
51190;SDS011;37253;48.736;9.294;2023-02-18T00:42:46;2.42;;;0.40;;
51190;SDS011;37253;48.736;9.294;2023-02-18T00:44:47;3.53;;;0.40;;
51190;SDS011;37253;48.736;9.294;2023-02-18T00:46:47;1.88;;;0.60;;
51190;SDS011;37253;48.736;9.294;2023-02-18T00:48:48;0.68;;;0.40;;
51190;SDS011;37253;48.736;9.294;2023-02-18T00:50:48;3.20;;;0.50;;
51190;SDS011;37253;48.736;9.294;2023-02-18T00:52:49;3.70;;;0.45;;
51190;SDS011;37253;48.736;9.294;2023-02-18T00:54:49;1.47;;;0.30;;
51190;SDS011;37253;48.736;9.294;2023-02-18T00:56:49;1.35;;;0.40;;
51190;SDS011;37253;48.736;9.294;2023-02-18T00:58:49;0.50;;;0.40;;
51190;SDS011;37253;48.736;9.294;2023-02-18T01:00:51;2.22;;;0.50;;
51190;SDS011;37253;48.736;9.294;2023-02-18T01:02:51;2.25;;;0.47;;
51190;SDS011;37253;48.736;9.294;2023-02-18T01:04:54;2.53;;;0.45;;
51190;SDS011;37253;48.736;9.294;2023-02-18T01:06:54;2.23;;;0.57;;
51190;SDS011;37253;48.736;9.294;2023-02-18T01:08:54;3.78;;;0.47;;
51190;SDS011;37253;48.736;9.294;2023-02-18T01:10:55;1.77;;;0.40;;
51190;SDS011;37253;48.736;9.294;2023-02-18T01:12:56;0.57;;;0.40;;
51190;SDS011;37253;48.736;9.294;2023-02-18T01:14:56;2.83;;;0.37;;
51190;SDS011;37253;48.736;9.294;2023-02-18T01:16:56;0.40;;;0.30;;
51190;SDS011;37253;48.736;9.294;2023-02-18T01:18:56;0.52;;;0.35;;
51190;SDS011;37253;48.736;9.294;2023-02-18T01:20:56;5.68;;;0.43;;
51190;SDS011;37253;48.736;9.294;2023-02-18T01:22:57;2.50;;;0.40;;
51190;SDS011;37253;48.736;9.294;2023-02-18T01:24:57;4.05;;;0.50;;
51190;SDS011;37253;48.736;9.294;2023-02-18T01:26:57;4.55;;;0.40;;
51190;SDS011;37253;48.736;9.294;2023-02-18T01:28:57;5.97;;;0.50;;
51190;SDS011;37253;48.736;9.294;2023-02-18T01:30:57;0.57;;;0.40;;
51190;SDS011;37253;48.736;9.294;2023-02-18T01:32:58;2.63;;;0.40;;
51190;SDS011;37253;48.736;9.294;2023-02-18T01:35:02;2.58;;;0.40;;
51190;SDS011;37253;48.736;9.294;2023-02-18T01:37:02;1.15;;;0.38;;
51190;SDS011;37253;48.736;9.294;2023-02-18T01:39:04;2.60;;;0.40;;
51190;SDS011;37253;48.736;9.294;2023-02-18T01:41:04;1.65;;;0.40;;
51190;SDS011;37253;48.736;9.294;2023-02-18T01:43:04;0.80;;;0.40;;
51190;SDS011;37253;48.736;9.294;2023-02-18T01:47:23;1.23;;;0.40;;
51190;SDS011;37253;48.736;9.294;2023-02-18T01:49:31;0.50;;;0.50;;
51190;SDS011;37253;48.736;9.294;2023-02-18T01:51:35;1.33;;;0.40;;
51190;SDS011;37253;48.736;9.294;2023-02-18T01:53:39;1.48;;;0.40;;
51190;SDS011;37253;48.736;9.294;2023-02-18T01:55:39;1.67;;;0.45;;
51190;SDS011;37253;48.736;9.294;2023-02-18T01:57:40;0.30;;;0.30;;
51190;SDS011;37253;48.736;9.294;2023-02-18T01:59:41;3.25;;;0.40;;
51190;SDS011;37253;48.736;9.294;2023-02-18T02:01:43;1.73;;;0.30;;
51190;SDS011;37253;48.736;9.294;2023-02-18T02:03:43;2.47;;;0.40;;
51190;SDS011;37253;48.736;9.294;2023-02-18T02:05:44;1.65;;;0.45;;
51190;SDS011;37253;48.736;9.294;2023-02-18T02:07:44;2.08;;;0.40;;
51190;SDS011;37253;48.736;9.294;2023-02-18T02:09:45;0.95;;;0.30;;
51190;SDS011;37253;48.736;9.294;2023-02-18T02:16:10;0.40;;;0.30;;
51190;SDS011;37253;48.736;9.294;2023-02-18T02:22:45;0.30;;;0.30;;
51190;SDS011;37253;48.736;9.294;2023-02-18T02:36:02;1.60;;;0.30;;
51190;SDS011;37253;48.736;9.294;2023-02-18T02:38:16;0.55;;;0.30;;
51190;SDS011;37253;48.736;9.294;2023-02-18T02:44:55;1.63;;;0.25;;
51190;SDS011;37253;48.736;9.294;2023-02-18T02:46:58;0.47;;;0.30;;
51190;SDS011;37253;48.736;9.294;2023-02-18T02:49:10;0.63;;;0.30;;
51190;SDS011;37253;48.736;9.294;2023-02-18T02:51:32;1.98;;;0.28;;
51190;SDS011;37253;48.736;9.294;2023-02-18T02:53:35;4.43;;;0.40;;
51190;SDS011;37253;48.736;9.294;2023-02-18T02:55:36;0.95;;;0.30;;
51190;SDS011;37253;48.736;9.294;2023-02-18T02:57:44;2.73;;;0.40;;
51190;SDS011;37253;48.736;9.294;2023-02-18T02:59:46;0.88;;;0.30;;
51190;SDS011;37253;48.736;9.294;2023-02-18T03:04:16;1.52;;;0.40;;
51190;SDS011;37253;48.736;9.294;2023-02-18T03:08:40;1.23;;;0.20;;
51190;SDS011;37253;48.736;9.294;2023-02-18T03:17:45;1.20;;;0.40;;
51190;SDS011;37253;48.736;9.294;2023-02-18T03:19:49;1.85;;;0.40;;
51190;SDS011;37253;48.736;9.294;2023-02-18T03:21:56;2.47;;;0.40;;
51190;SDS011;37253;48.736;9.294;2023-02-18T03:23:59;0.55;;;0.30;;
51190;SDS011;37253;48.736;9.294;2023-02-18T03:26:01;0.65;;;0.30;;
51190;SDS011;37253;48.736;9.294;2023-02-18T03:28:03;0.63;;;0.30;;
51190;SDS011;37253;48.736;9.294;2023-02-18T03:30:12;0.90;;;0.40;;
51190;SDS011;37253;48.736;9.294;2023-02-18T03:32:15;1.85;;;0.32;;
51190;SDS011;37253;48.736;9.294;2023-02-18T03:34:17;0.88;;;0.40;;
51190;SDS011;37253;48.736;9.294;2023-02-18T03:36:19;0.30;;;0.30;;
51190;SDS011;37253;48.736;9.294;2023-02-18T03:40:23;0.70;;;0.30;;
51190;SDS011;37253;48.736;9.294;2023-02-18T03:42:24;0.80;;;0.40;;
51190;SDS011;37253;48.736;9.294;2023-02-18T03:44:24;0.73;;;0.20;;
51190;SDS011;37253;48.736;9.294;2023-02-18T03:46:28;0.65;;;0.30;;
51190;SDS011;37253;48.736;9.294;2023-02-18T03:48:28;0.20;;;0.20;;
51190;SDS011;37253;48.736;9.294;2023-02-18T03:50:28;0.93;;;0.30;;
51190;SDS011;37253;48.736;9.294;2023-02-18T03:52:28;1.08;;;0.30;;
51190;SDS011;37253;48.736;9.294;2023-02-18T03:54:28;1.95;;;0.40;;
51190;SDS011;37253;48.736;9.294;2023-02-18T03:56:29;0.60;;;0.40;;
51190;SDS011;37253;48.736;9.294;2023-02-18T03:58:29;0.82;;;0.30;;
51190;SDS011;37253;48.736;9.294;2023-02-18T04:00:29;0.40;;;0.23;;
51190;SDS011;37253;48.736;9.294;2023-02-18T04:02:29;0.73;;;0.30;;
51190;SDS011;37253;48.736;9.294;2023-02-18T04:04:29;0.30;;;0.20;;
51190;SDS011;37253;48.736;9.294;2023-02-18T04:06:29;0.20;;;0.20;;
51190;SDS011;37253;48.736;9.294;2023-02-18T04:08:30;0.38;;;0.32;;
51190;SDS011;37253;48.736;9.294;2023-02-18T04:10:30;1.58;;;0.40;;
51190;SDS011;37253;48.736;9.294;2023-02-18T04:12:30;0.70;;;0.27;;
51190;SDS011;37253;48.736;9.294;2023-02-18T04:14:30;1.83;;;0.30;;
51190;SDS011;37253;48.736;9.294;2023-02-18T04:16:30;0.35;;;0.20;;
51190;SDS011;37253;48.736;9.294;2023-02-18T04:18:31;0.28;;;0.28;;
51190;SDS011;37253;48.736;9.294;2023-02-18T04:20:31;0.43;;;0.32;;
51190;SDS011;37253;48.736;9.294;2023-02-18T04:22:31;0.60;;;0.30;;
51190;SDS011;37253;48.736;9.294;2023-02-18T04:24:31;0.20;;;0.20;;
51190;SDS011;37253;48.736;9.294;2023-02-18T04:26:32;0.30;;;0.25;;
51190;SDS011;37253;48.736;9.294;2023-02-18T04:28:32;0.60;;;0.30;;
51190;SDS011;37253;48.736;9.294;2023-02-18T04:30:32;0.38;;;0.30;;
51190;SDS011;37253;48.736;9.294;2023-02-18T04:32:32;0.57;;;0.30;;
51190;SDS011;37253;48.736;9.294;2023-02-18T04:34:32;0.82;;;0.30;;
51190;SDS011;37253;48.736;9.294;2023-02-18T04:36:33;0.93;;;0.20;;
51190;SDS011;37253;48.736;9.294;2023-02-18T04:38:33;0.98;;;0.30;;
51190;SDS011;37253;48.736;9.294;2023-02-18T04:40:33;0.20;;;0.20;;
51190;SDS011;37253;48.736;9.294;2023-02-18T04:42:34;0.52;;;0.20;;
51190;SDS011;37253;48.736;9.294;2023-02-18T04:44:37;1.67;;;0.20;;
51190;SDS011;37253;48.736;9.294;2023-02-18T04:46:37;0.95;;;0.20;;
51190;SDS011;37253;48.736;9.294;2023-02-18T04:48:37;0.60;;;0.30;;
51190;SDS011;37253;48.736;9.294;2023-02-18T04:50:37;0.30;;;0.30;;
51190;SDS011;37253;48.736;9.294;2023-02-18T04:52:37;0.35;;;0.30;;
51190;SDS011;37253;48.736;9.294;2023-02-18T04:54:38;0.60;;;0.30;;
51190;SDS011;37253;48.736;9.294;2023-02-18T04:56:38;0.28;;;0.20;;
51190;SDS011;37253;48.736;9.294;2023-02-18T04:58:38;0.30;;;0.28;;
51190;SDS011;37253;48.736;9.294;2023-02-18T05:00:38;0.82;;;0.30;;
51190;SDS011;37253;48.736;9.294;2023-02-18T05:02:38;0.75;;;0.20;;
51190;SDS011;37253;48.736;9.294;2023-02-18T05:04:38;0.43;;;0.20;;
51190;SDS011;37253;48.736;9.294;2023-02-18T05:06:39;0.20;;;0.20;;
51190;SDS011;37253;48.736;9.294;2023-02-18T05:08:39;0.38;;;0.20;;
51190;SDS011;37253;48.736;9.294;2023-02-18T05:10:39;1.30;;;0.40;;
51190;SDS011;37253;48.736;9.294;2023-02-18T05:12:39;0.30;;;0.20;;
51190;SDS011;37253;48.736;9.294;2023-02-18T05:14:39;0.45;;;0.22;;
51190;SDS011;37253;48.736;9.294;2023-02-18T05:16:39;0.50;;;0.22;;
51190;SDS011;37253;48.736;9.294;2023-02-18T05:18:40;0.65;;;0.45;;
51190;SDS011;37253;48.736;9.294;2023-02-18T05:20:40;0.32;;;0.30;;
51190;SDS011;37253;48.736;9.294;2023-02-18T05:22:40;0.40;;;0.30;;
51190;SDS011;37253;48.736;9.294;2023-02-18T05:24:40;0.40;;;0.22;;
51190;SDS011;37253;48.736;9.294;2023-02-18T05:26:41;1.98;;;0.30;;
51190;SDS011;37253;48.736;9.294;2023-02-18T05:28:41;0.38;;;0.30;;
51190;SDS011;37253;48.736;9.294;2023-02-18T05:30:41;1.17;;;0.30;;
51190;SDS011;37253;48.736;9.294;2023-02-18T05:32:41;0.43;;;0.20;;
51190;SDS011;37253;48.736;9.294;2023-02-18T05:34:42;1.40;;;0.20;;
51190;SDS011;37253;48.736;9.294;2023-02-18T05:36:42;0.25;;;0.22;;
51190;SDS011;37253;48.736;9.294;2023-02-18T05:38:42;0.43;;;0.20;;
51190;SDS011;37253;48.736;9.294;2023-02-18T05:40:42;1.67;;;0.25;;
51190;SDS011;37253;48.736;9.294;2023-02-18T05:42:42;1.48;;;0.20;;
51190;SDS011;37253;48.736;9.294;2023-02-18T05:44:42;0.50;;;0.30;;
51190;SDS011;37253;48.736;9.294;2023-02-18T05:46:43;0.40;;;0.30;;
51190;SDS011;37253;48.736;9.294;2023-02-18T05:48:43;0.30;;;0.30;;
51190;SDS011;37253;48.736;9.294;2023-02-18T05:50:43;1.85;;;0.25;;
51190;SDS011;37253;48.736;9.294;2023-02-18T05:52:43;0.17;;;0.17;;
51190;SDS011;37253;48.736;9.294;2023-02-18T05:54:43;0.75;;;0.30;;
51190;SDS011;37253;48.736;9.294;2023-02-18T05:56:43;1.98;;;0.30;;
51190;SDS011;37253;48.736;9.294;2023-02-18T05:58:44;0.65;;;0.28;;
51190;SDS011;37253;48.736;9.294;2023-02-18T06:00:44;1.65;;;0.30;;
51190;SDS011;37253;48.736;9.294;2023-02-18T06:02:44;1.10;;;0.30;;
51190;SDS011;37253;48.736;9.294;2023-02-18T06:04:44;0.82;;;0.30;;
51190;SDS011;37253;48.736;9.294;2023-02-18T06:06:45;1.50;;;0.22;;
51190;SDS011;37253;48.736;9.294;2023-02-18T06:08:45;2.45;;;0.30;;
51190;SDS011;37253;48.736;9.294;2023-02-18T06:10:45;0.43;;;0.30;;
51190;SDS011;37253;48.736;9.294;2023-02-18T06:12:46;2.42;;;0.20;;
51190;SDS011;37253;48.736;9.294;2023-02-18T06:14:46;1.48;;;0.20;;
51190;SDS011;37253;48.736;9.294;2023-02-18T06:16:46;1.52;;;0.30;;
51190;SDS011;37253;48.736;9.294;2023-02-18T06:18:46;0.57;;;0.40;;
51190;SDS011;37253;48.736;9.294;2023-02-18T06:20:47;0.25;;;0.20;;
51190;SDS011;37253;48.736;9.294;2023-02-18T06:22:47;0.30;;;0.30;;
51190;SDS011;37253;48.736;9.294;2023-02-18T06:24:47;0.60;;;0.60;;
51190;SDS011;37253;48.736;9.294;2023-02-18T06:26:48;0.17;;;0.17;;
51190;SDS011;37253;48.736;9.294;2023-02-18T06:28:48;2.00;;;0.30;;
51190;SDS011;37253;48.736;9.294;2023-02-18T06:30:48;0.30;;;0.30;;
51190;SDS011;37253;48.736;9.294;2023-02-18T06:32:48;0.20;;;0.20;;
51190;SDS011;37253;48.736;9.294;2023-02-18T06:34:48;0.47;;;0.20;;
51190;SDS011;37253;48.736;9.294;2023-02-18T06:36:48;0.63;;;0.20;;
51190;SDS011;37253;48.736;9.294;2023-02-18T06:38:49;0.32;;;0.20;;
51190;SDS011;37253;48.736;9.294;2023-02-18T06:40:49;0.20;;;0.20;;
51190;SDS011;37253;48.736;9.294;2023-02-18T06:42:49;0.63;;;0.30;;
51190;SDS011;37253;48.736;9.294;2023-02-18T06:44:49;0.20;;;0.20;;
51190;SDS011;37253;48.736;9.294;2023-02-18T06:46:50;0.20;;;0.20;;
51190;SDS011;37253;48.736;9.294;2023-02-18T06:48:50;0.40;;;0.20;;
51190;SDS011;37253;48.736;9.294;2023-02-18T06:50:50;0.63;;;0.30;;
51190;SDS011;37253;48.736;9.294;2023-02-18T06:52:50;0.80;;;0.30;;
51190;SDS011;37253;48.736;9.294;2023-02-18T06:54:50;0.40;;;0.40;;
51190;SDS011;37253;48.736;9.294;2023-02-18T06:56:50;0.30;;;0.20;;
51190;SDS011;37253;48.736;9.294;2023-02-18T06:58:51;0.43;;;0.30;;
51190;SDS011;37253;48.736;9.294;2023-02-18T07:00:51;0.40;;;0.30;;
51190;SDS011;37253;48.736;9.294;2023-02-18T07:02:51;0.80;;;0.25;;
51190;SDS011;37253;48.736;9.294;2023-02-18T07:04:51;0.20;;;0.20;;
51190;SDS011;37253;48.736;9.294;2023-02-18T07:06:51;0.40;;;0.30;;
51190;SDS011;37253;48.736;9.294;2023-02-18T07:08:51;0.95;;;0.22;;
51190;SDS011;37253;48.736;9.294;2023-02-18T07:10:51;3.40;;;0.30;;
51190;SDS011;37253;48.736;9.294;2023-02-18T07:12:52;0.60;;;0.20;;
51190;SDS011;37253;48.736;9.294;2023-02-18T07:14:52;0.40;;;0.40;;
51190;SDS011;37253;48.736;9.294;2023-02-18T07:16:52;0.45;;;0.20;;
51190;SDS011;37253;48.736;9.294;2023-02-18T07:18:52;0.43;;;0.30;;
51190;SDS011;37253;48.736;9.294;2023-02-18T07:20:53;0.35;;;0.30;;
51190;SDS011;37253;48.736;9.294;2023-02-18T07:22:53;0.30;;;0.30;;
51190;SDS011;37253;48.736;9.294;2023-02-18T07:24:53;0.30;;;0.30;;
51190;SDS011;37253;48.736;9.294;2023-02-18T07:26:53;0.60;;;0.30;;
51190;SDS011;37253;48.736;9.294;2023-02-18T07:28:53;0.30;;;0.20;;
51190;SDS011;37253;48.736;9.294;2023-02-18T07:30:54;0.20;;;0.20;;
51190;SDS011;37253;48.736;9.294;2023-02-18T07:32:54;0.30;;;0.30;;
51190;SDS011;37253;48.736;9.294;2023-02-18T07:34:54;0.50;;;0.40;;
51190;SDS011;37253;48.736;9.294;2023-02-18T07:36:54;0.47;;;0.30;;
51190;SDS011;37253;48.736;9.294;2023-02-18T07:38:54;0.52;;;0.30;;
51190;SDS011;37253;48.736;9.294;2023-02-18T07:40:54;0.30;;;0.30;;
51190;SDS011;37253;48.736;9.294;2023-02-18T07:42:55;0.47;;;0.30;;
51190;SDS011;37253;48.736;9.294;2023-02-18T07:44:55;0.50;;;0.35;;
51190;SDS011;37253;48.736;9.294;2023-02-18T07:46:55;0.20;;;0.20;;
51190;SDS011;37253;48.736;9.294;2023-02-18T07:48:56;0.38;;;0.30;;
51190;SDS011;37253;48.736;9.294;2023-02-18T07:50:56;0.60;;;0.38;;
51190;SDS011;37253;48.736;9.294;2023-02-18T07:52:56;0.30;;;0.30;;
51190;SDS011;37253;48.736;9.294;2023-02-18T07:54:56;0.73;;;0.23;;
51190;SDS011;37253;48.736;9.294;2023-02-18T07:56:56;0.40;;;0.40;;
51190;SDS011;37253;48.736;9.294;2023-02-18T07:58:57;0.87;;;0.30;;
51190;SDS011;37253;48.736;9.294;2023-02-18T08:00:57;0.40;;;0.40;;
51190;SDS011;37253;48.736;9.294;2023-02-18T08:02:57;0.75;;;0.30;;
51190;SDS011;37253;48.736;9.294;2023-02-18T08:04:57;0.60;;;0.30;;
51190;SDS011;37253;48.736;9.294;2023-02-18T08:06:57;0.30;;;0.30;;
51190;SDS011;37253;48.736;9.294;2023-02-18T08:08:57;0.40;;;0.30;;
51190;SDS011;37253;48.736;9.294;2023-02-18T08:10:58;0.28;;;0.22;;
51190;SDS011;37253;48.736;9.294;2023-02-18T08:13:00;0.40;;;0.40;;
51190;SDS011;37253;48.736;9.294;2023-02-18T08:15:01;1.17;;;0.40;;
51190;SDS011;37253;48.736;9.294;2023-02-18T08:17:01;0.25;;;0.25;;
51190;SDS011;37253;48.736;9.294;2023-02-18T08:19:01;0.93;;;0.30;;
51190;SDS011;37253;48.736;9.294;2023-02-18T08:21:02;0.50;;;0.35;;
51190;SDS011;37253;48.736;9.294;2023-02-18T08:23:04;0.30;;;0.28;;
51190;SDS011;37253;48.736;9.294;2023-02-18T08:25:04;0.60;;;0.30;;
51190;SDS011;37253;48.736;9.294;2023-02-18T08:27:04;0.20;;;0.20;;
51190;SDS011;37253;48.736;9.294;2023-02-18T08:29:04;0.50;;;0.30;;
51190;SDS011;37253;48.736;9.294;2023-02-18T08:31:05;0.55;;;0.30;;
51190;SDS011;37253;48.736;9.294;2023-02-18T08:33:05;0.32;;;0.30;;
51190;SDS011;37253;48.736;9.294;2023-02-18T08:35:05;0.57;;;0.40;;
51190;SDS011;37253;48.736;9.294;2023-02-18T08:37:06;1.08;;;0.32;;
51190;SDS011;37253;48.736;9.294;2023-02-18T08:39:06;0.30;;;0.30;;
51190;SDS011;37253;48.736;9.294;2023-02-18T08:41:07;0.30;;;0.30;;
51190;SDS011;37253;48.736;9.294;2023-02-18T08:43:08;0.80;;;0.40;;
51190;SDS011;37253;48.736;9.294;2023-02-18T08:45:08;0.50;;;0.38;;
51190;SDS011;37253;48.736;9.294;2023-02-18T08:47:08;0.47;;;0.40;;
51190;SDS011;37253;48.736;9.294;2023-02-18T08:49:08;2.45;;;0.30;;
51190;SDS011;37253;48.736;9.294;2023-02-18T08:51:13;0.50;;;0.40;;
51190;SDS011;37253;48.736;9.294;2023-02-18T08:53:13;0.40;;;0.40;;
51190;SDS011;37253;48.736;9.294;2023-02-18T08:55:13;0.60;;;0.40;;
51190;SDS011;37253;48.736;9.294;2023-02-18T08:57:14;1.85;;;0.30;;
51190;SDS011;37253;48.736;9.294;2023-02-18T08:59:14;1.40;;;0.40;;
51190;SDS011;37253;48.736;9.294;2023-02-18T09:01:14;0.47;;;0.38;;
51190;SDS011;37253;48.736;9.294;2023-02-18T09:03:14;0.45;;;0.30;;
51190;SDS011;37253;48.736;9.294;2023-02-18T09:05:15;0.70;;;0.40;;
51190;SDS011;37253;48.736;9.294;2023-02-18T09:07:15;0.65;;;0.30;;
51190;SDS011;37253;48.736;9.294;2023-02-18T09:09:18;0.50;;;0.30;;
51190;SDS011;37253;48.736;9.294;2023-02-18T09:11:19;0.65;;;0.30;;
51190;SDS011;37253;48.736;9.294;2023-02-18T09:13:19;0.30;;;0.30;;
51190;SDS011;37253;48.736;9.294;2023-02-18T09:15:19;0.28;;;0.28;;
51190;SDS011;37253;48.736;9.294;2023-02-18T09:17:19;0.30;;;0.30;;
51190;SDS011;37253;48.736;9.294;2023-02-18T09:19:19;0.20;;;0.20;;
51190;SDS011;37253;48.736;9.294;2023-02-18T09:21:20;0.22;;;0.22;;
51190;SDS011;37253;48.736;9.294;2023-02-18T09:23:21;0.40;;;0.30;;
51190;SDS011;37253;48.736;9.294;2023-02-18T09:25:21;0.82;;;0.30;;
51190;SDS011;37253;48.736;9.294;2023-02-18T09:27:22;0.47;;;0.40;;
51190;SDS011;37253;48.736;9.294;2023-02-18T09:29:22;0.63;;;0.30;;
51190;SDS011;37253;48.736;9.294;2023-02-18T09:31:23;0.77;;;0.40;;
51190;SDS011;37253;48.736;9.294;2023-02-18T09:33:23;1.65;;;0.40;;
51190;SDS011;37253;48.736;9.294;2023-02-18T09:35:23;0.40;;;0.40;;
51190;SDS011;37253;48.736;9.294;2023-02-18T09:37:23;0.85;;;0.50;;
51190;SDS011;37253;48.736;9.294;2023-02-18T09:39:24;0.45;;;0.40;;
51190;SDS011;37253;48.736;9.294;2023-02-18T09:45:33;0.52;;;0.40;;
51190;SDS011;37253;48.736;9.294;2023-02-18T09:47:35;1.52;;;0.40;;
51190;SDS011;37253;48.736;9.294;2023-02-18T09:49:46;0.80;;;0.30;;
51190;SDS011;37253;48.736;9.294;2023-02-18T09:51:48;0.50;;;0.30;;
51190;SDS011;37253;48.736;9.294;2023-02-18T09:53:48;0.57;;;0.30;;
51190;SDS011;37253;48.736;9.294;2023-02-18T09:55:49;0.22;;;0.22;;
51190;SDS011;37253;48.736;9.294;2023-02-18T09:57:51;0.30;;;0.30;;
51190;SDS011;37253;48.736;9.294;2023-02-18T09:59:56;0.60;;;0.40;;
51190;SDS011;37253;48.736;9.294;2023-02-18T10:01:57;0.30;;;0.30;;
51190;SDS011;37253;48.736;9.294;2023-02-18T10:03:59;2.92;;;0.50;;
51190;SDS011;37253;48.736;9.294;2023-02-18T10:08:02;0.90;;;0.40;;
51190;SDS011;37253;48.736;9.294;2023-02-18T10:11:05;2.50;;;0.40;;
51190;SDS011;37253;48.736;9.294;2023-02-18T10:13:17;4.07;;;0.47;;
51190;SDS011;37253;48.736;9.294;2023-02-18T10:15:22;0.85;;;0.40;;
51190;SDS011;37253;48.736;9.294;2023-02-18T10:17:24;0.73;;;0.30;;
51190;SDS011;37253;48.736;9.294;2023-02-18T10:22:23;3.95;;;0.32;;
51190;SDS011;37253;48.736;9.294;2023-02-18T10:24:46;1.20;;;0.30;;
51190;SDS011;37253;48.736;9.294;2023-02-18T10:26:51;8.68;;;0.50;;
51190;SDS011;37253;48.736;9.294;2023-02-18T10:28:52;5.85;;;0.45;;
51190;SDS011;37253;48.736;9.294;2023-02-18T10:30:56;1.02;;;0.40;;
51190;SDS011;37253;48.736;9.294;2023-02-18T10:35:16;24.02;;;1.30;;
51190;SDS011;37253;48.736;9.294;2023-02-18T10:46:21;38.28;;;1.15;;
51190;SDS011;37253;48.736;9.294;2023-02-18T10:52:39;13.25;;;0.80;;
51190;SDS011;37253;48.736;9.294;2023-02-18T10:56:52;12.70;;;0.57;;
51190;SDS011;37253;48.736;9.294;2023-02-18T11:00:59;3.72;;;0.52;;
51190;SDS011;37253;48.736;9.294;2023-02-18T11:03:15;5.03;;;0.57;;
51190;SDS011;37253;48.736;9.294;2023-02-18T11:05:18;2.75;;;0.77;;
51190;SDS011;37253;48.736;9.294;2023-02-18T11:07:27;5.85;;;1.00;;
51190;SDS011;37253;48.736;9.294;2023-02-18T11:09:33;3.38;;;0.50;;
51190;SDS011;37253;48.736;9.294;2023-02-18T11:11:41;6.22;;;0.63;;
51190;SDS011;37253;48.736;9.294;2023-02-18T11:13:41;8.95;;;0.70;;
51190;SDS011;37253;48.736;9.294;2023-02-18T11:20:35;5.80;;;0.63;;
51190;SDS011;37253;48.736;9.294;2023-02-18T11:22:36;8.73;;;0.80;;
51190;SDS011;37253;48.736;9.294;2023-02-18T11:24:38;6.25;;;0.70;;
51190;SDS011;37253;48.736;9.294;2023-02-18T11:26:39;13.13;;;0.80;;
51190;SDS011;37253;48.736;9.294;2023-02-18T11:30:52;6.68;;;0.70;;
51190;SDS011;37253;48.736;9.294;2023-02-18T11:32:58;5.07;;;0.65;;
51190;SDS011;37253;48.736;9.294;2023-02-18T11:35:02;9.57;;;0.60;;
51190;SDS011;37253;48.736;9.294;2023-02-18T11:37:07;6.68;;;0.68;;
51190;SDS011;37253;48.736;9.294;2023-02-18T11:39:27;5.25;;;1.00;;
51190;SDS011;37253;48.736;9.294;2023-02-18T11:41:28;8.20;;;0.90;;
51190;SDS011;37253;48.736;9.294;2023-02-18T11:43:31;5.47;;;0.60;;
51190;SDS011;37253;48.736;9.294;2023-02-18T11:45:33;12.18;;;1.02;;
51190;SDS011;37253;48.736;9.294;2023-02-18T11:47:34;11.43;;;0.70;;
51190;SDS011;37253;48.736;9.294;2023-02-18T11:49:36;10.02;;;0.50;;
51190;SDS011;37253;48.736;9.294;2023-02-18T11:51:36;5.60;;;0.60;;
51190;SDS011;37253;48.736;9.294;2023-02-18T11:53:49;7.88;;;0.88;;
51190;SDS011;37253;48.736;9.294;2023-02-18T11:56:04;6.22;;;0.70;;
51190;SDS011;37253;48.736;9.294;2023-02-18T11:58:08;6.05;;;0.50;;
51190;SDS011;37253;48.736;9.294;2023-02-18T12:02:35;3.35;;;0.40;;
51190;SDS011;37253;48.736;9.294;2023-02-18T12:04:40;3.72;;;0.75;;
51190;SDS011;37253;48.736;9.294;2023-02-18T12:06:54;9.02;;;0.70;;
51190;SDS011;37253;48.736;9.294;2023-02-18T12:09:02;5.57;;;0.45;;
51190;SDS011;37253;48.736;9.294;2023-02-18T12:11:14;4.93;;;0.60;;
51190;SDS011;37253;48.736;9.294;2023-02-18T12:13:25;6.90;;;0.60;;
51190;SDS011;37253;48.736;9.294;2023-02-18T12:15:36;5.78;;;0.50;;
51190;SDS011;37253;48.736;9.294;2023-02-18T12:20:02;3.40;;;0.52;;
51190;SDS011;37253;48.736;9.294;2023-02-18T12:22:17;3.88;;;0.55;;
51190;SDS011;37253;48.736;9.294;2023-02-18T12:25:15;3.97;;;0.40;;
51190;SDS011;37253;48.736;9.294;2023-02-18T12:29:29;4.95;;;0.52;;
51190;SDS011;37253;48.736;9.294;2023-02-18T12:34:19;4.03;;;0.50;;
51190;SDS011;37253;48.736;9.294;2023-02-18T12:39:07;4.82;;;0.50;;
51190;SDS011;37253;48.736;9.294;2023-02-18T13:07:32;1.55;;;0.40;;
51190;SDS011;37253;48.736;9.294;2023-02-18T13:14:28;3.20;;;0.40;;
51190;SDS011;37253;48.736;9.294;2023-02-18T13:16:31;1.10;;;0.50;;
51190;SDS011;37253;48.736;9.294;2023-02-18T13:18:36;5.32;;;0.60;;
51190;SDS011;37253;48.736;9.294;2023-02-18T13:20:40;2.47;;;0.40;;
51190;SDS011;37253;48.736;9.294;2023-02-18T13:22:42;0.98;;;0.50;;
51190;SDS011;37253;48.736;9.294;2023-02-18T13:24:44;4.45;;;0.50;;
51190;SDS011;37253;48.736;9.294;2023-02-18T13:26:45;3.63;;;0.50;;
51190;SDS011;37253;48.736;9.294;2023-02-18T13:28:54;4.20;;;0.63;;
51190;SDS011;37253;48.736;9.294;2023-02-18T13:35:28;6.45;;;0.63;;
51190;SDS011;37253;48.736;9.294;2023-02-18T13:37:54;4.60;;;0.43;;
51190;SDS011;37253;48.736;9.294;2023-02-18T13:40:00;4.15;;;0.70;;
51190;SDS011;37253;48.736;9.294;2023-02-18T13:46:22;7.90;;;0.75;;
51190;SDS011;37253;48.736;9.294;2023-02-18T13:48:26;7.25;;;0.60;;
51190;SDS011;37253;48.736;9.294;2023-02-18T13:50:29;3.42;;;0.60;;
51190;SDS011;37253;48.736;9.294;2023-02-18T13:52:31;4.45;;;0.70;;
51190;SDS011;37253;48.736;9.294;2023-02-18T13:54:33;5.55;;;0.60;;
51190;SDS011;37253;48.736;9.294;2023-02-18T13:56:39;1.20;;;0.40;;
51190;SDS011;37253;48.736;9.294;2023-02-18T13:59:16;4.28;;;0.45;;
51190;SDS011;37253;48.736;9.294;2023-02-18T14:01:19;3.97;;;0.50;;
51190;SDS011;37253;48.736;9.294;2023-02-18T14:03:33;3.28;;;0.50;;
51190;SDS011;37253;48.736;9.294;2023-02-18T14:05:38;4.63;;;0.67;;
51190;SDS011;37253;48.736;9.294;2023-02-18T14:07:51;5.68;;;0.60;;
51190;SDS011;37253;48.736;9.294;2023-02-18T14:09:53;3.43;;;0.57;;
51190;SDS011;37253;48.736;9.294;2023-02-18T14:11:56;2.30;;;0.50;;
51190;SDS011;37253;48.736;9.294;2023-02-18T14:16:24;3.45;;;0.60;;
51190;SDS011;37253;48.736;9.294;2023-02-18T14:19:22;7.93;;;0.70;;
51190;SDS011;37253;48.736;9.294;2023-02-18T14:20:46;2.78;;;0.65;;
51190;SDS011;37253;48.736;9.294;2023-02-18T14:22:50;8.23;;;0.68;;
51190;SDS011;37253;48.736;9.294;2023-02-18T14:24:55;1.48;;;0.70;;
51190;SDS011;37253;48.736;9.294;2023-02-18T14:27:06;7.10;;;0.73;;
51190;SDS011;37253;48.736;9.294;2023-02-18T14:29:12;6.80;;;1.10;;